Terminal Aerodrome Forecast
Issued by NWS

Home | Current Version | Previous Version | Text Only | Print | Product List | Glossary On
Versions: 1 2 3 4 5 6 7 8 9 10 11 12 13 14 15 16 17 18 19 20 21 22 23 24 25 26
535
FTUS41 KBUF 171503 AAA
TAFIAG
TAF AMD
KIAG 171503Z 1715/1812 09009KT 3SM -RA BKN015 BKN040 OVC045
     FM171800 16007KT 1 1/2SM -RA OVC007
     FM172300 21008KT 3SM -RA OVC007
     FM180200 23010KT 5SM -RA OVC012
     FM181000 25010KT 5SM BR VCSH OVC012=

USA.gov is the U.S. government's official web portal to all federal, state and local government web resources and services.